Time;durP1;ratioP1;P1;durP2;ratioP2;P2;SDS_P1;SDS_P2;PMS_P1;PMS_P2;Temp;Humidity;BMP_temperature;BMP_pressure;BME280_temperature;BME280_humidity;BME280_pressure;Samples;Min_cycle;Max_cycle;Signal;HPM_P1;HPM_P2
2021/12/18 00:01:10;;;;;;;;;;;52.10;2227.20;;;;;;4792326;30;19967;-81
2021/12/18 00:04:06;;;;;;;;;;;52.00;2227.20;;;;;;4790857;30;19918;-81
2021/12/18 00:06:55;;;;;;;;;;;52.00;2227.20;;;;;;4790999;30;19977;-80
2021/12/18 00:09:41;;;;;;;;;;;52.00;2227.20;;;;;;4790666;30;19985;-80
2021/12/18 00:12:10;;;;;;;;;;;52.00;2227.20;;;;;;4776340;30;19913;-81
2021/12/18 00:14:38;;;;;;;;;;;51.90;2227.20;;;;;;4794386;30;19894;-80
2021/12/18 00:17:05;;;;;;;;;;;51.90;2227.20;;;;;;4793819;30;19894;-81
2021/12/18 00:19:32;;;;;;;;;;;51.90;2227.20;;;;;;4793638;30;20571;-81
2021/12/18 00:22:00;;;;;;;;;;;51.90;2227.20;;;;;;4794162;30;19894;-80
2021/12/18 00:24:49;;;;;;;;;;;51.90;2227.20;;;;;;4779167;30;19922;-80
2021/12/18 00:27:16;;;;;;;;;;;51.90;2227.20;;;;;;4794229;30;19909;-81
2021/12/18 00:29:57;;;;;;;;;;;51.60;2227.20;;;;;;4778016;30;19925;-79
2021/12/18 00:35:12;;;;;;;;;;;51.90;2227.20;;;;;;4776645;30;19917;-81
2021/12/18 00:37:42;;;;;;;;;;;52.00;2227.20;;;;;;4761971;30;19910;-81
2021/12/18 00:40:19;;;;;;;;;;;52.00;2227.20;;;;;;4761324;30;19901;-81
2021/12/18 00:43:03;;;;;;;;;;;52.00;2227.20;;;;;;4776202;30;19956;-81
2021/12/18 00:45:35;;;;;;;;;;;52.00;2227.20;;;;;;4761545;30;19940;-81
2021/12/18 00:48:09;;;;;;;;;;;52.10;2227.20;;;;;;4761421;30;19918;-81
2021/12/18 00:50:37;;;;;;;;;;;52.00;2227.20;;;;;;4761421;30;19930;-81
2021/12/18 00:53:35;;;;;;;;;;;52.00;2227.20;;;;;;4772777;30;19899;-81
2021/12/18 00:56:17;;;;;;;;;;;52.00;2227.20;;;;;;4777372;30;19917;-80
2021/12/18 00:58:51;;;;;;;;;;;52.00;2227.20;;;;;;4761654;30;19956;-80
2021/12/18 01:01:45;;;;;;;;;;;52.00;2227.20;;;;;;4760786;30;19921;-79
2021/12/18 01:04:16;;;;;;;;;;;52.00;2227.20;;;;;;4776407;30;19924;-80
2021/12/18 01:06:42;;;;;;;;;;;52.00;2227.20;;;;;;4759826;30;19938;-80
2021/12/18 01:09:22;;;;;;;;;;;51.60;2227.20;;;;;;4776029;30;19953;-80
2021/12/18 01:11:50;;;;;;;;;;;52.00;2227.20;;;;;;4776826;30;19941;-80
2021/12/18 01:14:47;;;;;;;;;;;51.60;2227.20;;;;;;4775977;30;19894;-80
2021/12/18 01:22:50;;;;;;;;;;;51.90;2227.20;;;;;;4777248;30;19936;-81
2021/12/18 01:25:37;;;;;;;;;;;51.90;2227.20;;;;;;4775472;30;19921;-83
2021/12/18 01:28:09;;;;;;;;;;;52.00;2227.20;;;;;;4760853;30;19910;-82
2021/12/18 01:31:06;;;;;;;;;;;52.00;2227.20;;;;;;4761675;30;19914;-81
2021/12/18 01:33:35;;;;;;;;;;;52.00;2227.20;;;;;;4776723;30;19910;-80
2021/12/18 01:36:10;;;;;;;;;;;77.30;2227.20;;;;;;4746345;30;19914;-81
2021/12/18 01:38:38;;;;;;;;;;;52.00;2227.20;;;;;;4759088;30;19917;-80
2021/12/18 01:41:04;;;;;;;;;;;52.10;2227.20;;;;;;4760580;30;19910;-80
2021/12/18 01:52:15;;;;;;;;;;;52.00;2227.20;;;;;;4775738;30;19917;-79
2021/12/18 01:54:42;;;;;;;;;;;52.00;2227.20;;;;;;4759975;30;19917;-79
2021/12/18 01:57:12;;;;;;;;;;;52.00;2227.20;;;;;;4775393;30;19910;-79
2021/12/18 01:59:45;;;;;;;;;;;52.10;2227.20;;;;;;4775013;30;19910;-79
2021/12/18 02:02:26;;;;;;;;;;;76.80;2227.20;;;;;;4759662;30;19910;-79
2021/12/18 02:04:54;;;;;;;;;;;76.80;2227.20;;;;;;4760106;30;19918;-80
2021/12/18 02:07:31;;;;;;;;;;;52.10;2227.20;;;;;;4761689;30;19919;-81
2021/12/18 02:10:15;;;;;;;;;;;52.10;2227.20;;;;;;4775789;29;19914;-81
2021/12/18 02:21:20;;;;;;;;;;;76.80;2227.20;;;;;;4775579;30;19936;-80
2021/12/18 02:23:49;;;;;;;;;;;76.80;2227.20;;;;;;4772844;30;19967;-80
2021/12/18 02:26:35;;;;;;;;;;;76.80;2227.20;;;;;;4775080;30;19917;-81
2021/12/18 02:29:05;;;;;;;;;;;76.80;2227.20;;;;;;4759557;30;19969;-80
2021/12/18 02:32:03;;;;;;;;;;;76.90;2227.20;;;;;;4774740;30;19914;-80
2021/12/18 02:35:03;;;;;;;;;;;76.90;2227.20;;;;;;4775386;30;19914;-80
2021/12/18 02:37:33;;;;;;;;;;;76.80;2227.20;;;;;;4759476;30;19973;-80
2021/12/18 02:43:12;;;;;;;;;;;76.80;2227.20;;;;;;4774619;30;19917;-81
2021/12/18 02:45:39;;;;;;;;;;;52.10;2227.20;;;;;;4774668;30;19910;-80
2021/12/18 02:48:05;;;;;;;;;;;52.10;2227.20;;;;;;4745360;30;19924;-80
2021/12/18 02:50:39;;;;;;;;;;;52.10;2227.20;;;;;;4773542;30;19906;-80
2021/12/18 02:53:22;;;;;;;;;;;52.10;2227.20;;;;;;4759839;30;19894;-80
2021/12/18 02:56:01;;;;;;;;;;;76.80;2227.20;;;;;;4759549;30;20376;-81
2021/12/18 02:58:30;;;;;;;;;;;76.80;2227.20;;;;;;4759320;30;19910;-80
2021/12/18 03:01:13;;;;;;;;;;;76.80;2227.20;;;;;;4758714;30;19938;-80
2021/12/18 03:03:41;;;;;;;;;;;52.10;2227.20;;;;;;4775063;30;19914;-80
2021/12/18 03:25:34;;;;;;;;;;;76.80;2227.20;;;;;;4774730;30;19925;-80
2021/12/18 03:28:02;;;;;;;;;;;76.80;2227.20;;;;;;4759262;30;19961;-81
2021/12/18 03:30:46;;;;;;;;;;;77.00;2227.20;;;;;;4774015;30;19987;-80
2021/12/18 03:33:13;;;;;;;;;;;76.90;2227.20;;;;;;4744379;30;19959;-80
2021/12/18 03:35:40;;;;;;;;;;;76.90;2227.20;;;;;;4758859;30;19917;-80
2021/12/18 03:38:14;;;;;;;;;;;76.90;2227.20;;;;;;4773492;30;19894;-80
2021/12/18 03:40:41;;;;;;;;;;;76.80;2227.20;;;;;;4744456;30;19946;-80
2021/12/18 03:43:07;;;;;;;;;;;76.80;2227.20;;;;;;4758431;30;19974;-79
2021/12/18 03:45:43;;;;;;;;;;;76.80;2227.20;;;;;;4773088;30;19914;-80
2021/12/18 03:48:11;;;;;;;;;;;76.80;2227.20;;;;;;4775230;30;19917;-79
2021/12/18 03:50:46;;;;;;;;;;;76.80;2227.20;;;;;;4779988;30;19989;-80
2021/12/18 03:53:12;;;;;;;;;;;76.80;2227.20;;;;;;4745563;30;19925;-75
2021/12/18 03:55:37;;;;;;;;;;;76.90;2227.20;;;;;;4762517;30;20288;-75
2021/12/18 03:58:03;;;;;;;;;;;76.90;2227.20;;;;;;4746080;30;19910;-74
2021/12/18 04:00:29;;;;;;;;;;;76.90;2227.20;;;;;;4746146;30;19972;-74
2021/12/18 04:02:55;;;;;;;;;;;76.90;2227.20;;;;;;4742951;30;19936;-74
2021/12/18 04:05:20;;;;;;;;;;;76.80;2227.20;;;;;;4742964;30;19914;-74
2021/12/18 04:07:49;;;;;;;;;;;76.80;2227.20;;;;;;4758836;30;20396;-74
2021/12/18 04:10:16;;;;;;;;;;;76.80;2227.20;;;;;;4742737;30;19916;-74
2021/12/18 04:12:42;;;;;;;;;;;76.80;2227.20;;;;;;4742837;30;19914;-74
2021/12/18 04:15:07;;;;;;;;;;;76.80;2227.20;;;;;;4758878;30;20306;-74
2021/12/18 04:17:33;;;;;;;;;;;76.80;2227.20;;;;;;4742952;30;19910;-74
2021/12/18 04:19:59;;;;;;;;;;;76.80;2227.20;;;;;;4758735;30;19910;-74
2021/12/18 04:22:25;;;;;;;;;;;52.10;2227.20;;;;;;4743950;30;19910;-74
2021/12/18 04:24:50;;;;;;;;;;;52.10;2227.20;;;;;;4742774;30;19918;-74
2021/12/18 04:27:16;;;;;;;;;;;52.10;2227.20;;;;;;4742730;30;20012;-74
2021/12/18 04:29:42;;;;;;;;;;;76.80;2227.20;;;;;;4758685;30;20009;-74
2021/12/18 04:32:08;;;;;;;;;;;76.80;2227.20;;;;;;4758592;30;19917;-74
2021/12/18 04:34:33;;;;;;;;;;;76.80;2227.20;;;;;;4758679;30;19917;-74
2021/12/18 04:36:59;;;;;;;;;;;52.10;2227.20;;;;;;4743642;30;19901;-74
2021/12/18 04:39:25;;;;;;;;;;;52.10;2227.20;;;;;;4742642;30;19910;-74
2021/12/18 04:41:51;;;;;;;;;;;52.10;2227.20;;;;;;4758512;30;19914;-74
2021/12/18 04:44:17;;;;;;;;;;;52.10;2227.20;;;;;;4742618;30;19918;-74
2021/12/18 04:46:43;;;;;;;;;;;52.00;2227.20;;;;;;4742476;30;19910;-74
2021/12/18 04:49:09;;;;;;;;;;;76.80;2227.20;;;;;;4742504;30;19941;-74
2021/12/18 04:51:34;;;;;;;;;;;76.80;2227.20;;;;;;4758495;30;19920;-74
2021/12/18 04:54:00;;;;;;;;;;;76.90;2227.20;;;;;;4758523;30;20012;-74
2021/12/18 04:56:26;;;;;;;;;;;76.90;2227.20;;;;;;4758501;30;20035;-74
2021/12/18 04:58:52;;;;;;;;;;;76.90;2227.20;;;;;;4757738;30;20372;-74
2021/12/18 05:01:18;;;;;;;;;;;76.90;2227.20;;;;;;4754948;30;19916;-74
2021/12/18 05:03:44;;;;;;;;;;;76.90;2227.20;;;;;;4755528;30;20269;-74
2021/12/18 05:06:10;;;;;;;;;;;76.90;2227.20;;;;;;4755671;30;20280;-74
2021/12/18 05:08:36;;;;;;;;;;;76.80;2227.20;;;;;;4739655;30;19916;-74
2021/12/18 05:11:02;;;;;;;;;;;76.80;2227.20;;;;;;4739668;30;20004;-74
2021/12/18 05:13:28;;;;;;;;;;;76.80;2227.20;;;;;;4739604;30;20012;-74
2021/12/18 05:15:53;;;;;;;;;;;52.10;2227.20;;;;;;4755329;30;19910;-74
2021/12/18 05:18:19;;;;;;;;;;;52.10;2227.20;;;;;;4755501;30;20315;-74
2021/12/18 05:20:45;;;;;;;;;;;52.10;2227.20;;;;;;4739520;30;19918;-74
2021/12/18 05:23:10;;;;;;;;;;;52.10;2227.20;;;;;;4739287;30;19914;-74
2021/12/18 05:25:36;;;;;;;;;;;52.10;2227.20;;;;;;4755660;30;19918;-74
2021/12/18 05:28:02;;;;;;;;;;;52.10;2227.20;;;;;;4755328;30;19914;-74
2021/12/18 05:30:28;;;;;;;;;;;52.10;2227.20;;;;;;4755109;30;19917;-74
2021/12/18 05:32:53;;;;;;;;;;;52.10;2227.20;;;;;;4754437;30;19910;-74
2021/12/18 05:35:19;;;;;;;;;;;52.10;2227.20;;;;;;4739333;30;20283;-74
2021/12/18 05:37:49;;;;;;;;;;;76.80;2227.20;;;;;;4755103;30;19910;-74
2021/12/18 05:40:24;;;;;;;;;;;76.80;2227.20;;;;;;4755085;30;19910;-74
2021/12/18 05:42:51;;;;;;;;;;;76.90;2227.20;;;;;;4739086;30;19914;-74
2021/12/18 05:45:18;;;;;;;;;;;76.90;2227.20;;;;;;4739122;30;19914;-74
2021/12/18 05:47:44;;;;;;;;;;;77.00;2227.20;;;;;;4738843;30;19910;-74
2021/12/18 05:50:10;;;;;;;;;;;77.00;2227.20;;;;;;4738797;30;19922;-74
2021/12/18 05:52:36;;;;;;;;;;;77.00;2227.20;;;;;;4754779;30;20002;-74
2021/12/18 05:55:03;;;;;;;;;;;77.00;2227.20;;;;;;4754873;30;19957;-74
2021/12/18 05:57:29;;;;;;;;;;;77.10;2227.20;;;;;;4738959;30;19975;-74
2021/12/18 05:59:54;;;;;;;;;;;77.10;2227.20;;;;;;4754818;30;20429;-74
2021/12/18 06:02:20;;;;;;;;;;;77.10;2227.20;;;;;;4738778;30;20292;-74
2021/12/18 06:04:46;;;;;;;;;;;77.10;2227.20;;;;;;4738689;30;20063;-74
2021/12/18 06:09:57;;;;;;;;;;;77.10;2227.20;;;;;;4754919;30;19917;-74
2021/12/18 06:12:23;;;;;;;;;;;77.20;2227.20;;;;;;4739663;30;20383;-74
2021/12/18 06:14:49;;;;;;;;;;;77.20;2227.20;;;;;;4738501;30;19917;-74
2021/12/18 06:17:14;;;;;;;;;;;77.20;2227.20;;;;;;4754390;30;19911;-74
2021/12/18 06:19:40;;;;;;;;;;;77.30;2227.20;;;;;;4754435;30;19921;-74
2021/12/18 06:22:06;;;;;;;;;;;77.30;2227.20;;;;;;4754355;30;19910;-74
2021/12/18 06:24:32;;;;;;;;;;;77.30;2227.20;;;;;;4754189;30;19929;-74
2021/12/18 06:26:58;;;;;;;;;;;77.20;2227.20;;;;;;4754423;30;19914;-74
2021/12/18 06:29:23;;;;;;;;;;;77.20;2227.20;;;;;;4738448;30;19910;-74
2021/12/18 06:31:49;;;;;;;;;;;77.20;2227.20;;;;;;4754086;30;19916;-74
2021/12/18 06:34:16;;;;;;;;;;;77.00;2227.20;;;;;;4754108;30;19916;-74
2021/12/18 06:36:42;;;;;;;;;;;77.10;2227.20;;;;;;4753002;30;19910;-74
2021/12/18 06:39:08;;;;;;;;;;;77.10;2227.20;;;;;;4753990;30;19910;-74
2021/12/18 06:41:34;;;;;;;;;;;77.10;2227.20;;;;;;4754034;30;19910;-74
2021/12/18 06:43:59;;;;;;;;;;;77.10;2227.20;;;;;;4753954;30;19924;-74
2021/12/18 06:46:25;;;;;;;;;;;77.00;2227.20;;;;;;4754036;30;19911;-74
2021/12/18 06:48:51;;;;;;;;;;;77.00;2227.20;;;;;;4737963;30;20268;-74
2021/12/18 06:51:17;;;;;;;;;;;77.00;2227.20;;;;;;4754236;30;19925;-74
2021/12/18 06:53:43;;;;;;;;;;;77.00;2227.20;;;;;;4753714;30;20360;-74
2021/12/18 06:56:09;;;;;;;;;;;77.00;2227.20;;;;;;4753837;30;19916;-74
2021/12/18 06:58:35;;;;;;;;;;;77.00;2227.20;;;;;;4753863;30;19957;-74
2021/12/18 07:01:01;;;;;;;;;;;77.00;2227.20;;;;;;4753694;30;20009;-74
2021/12/18 07:03:27;;;;;;;;;;;77.00;2227.20;;;;;;4737892;30;19921;-75
2021/12/18 07:05:52;;;;;;;;;;;77.00;2227.20;;;;;;4753660;30;19922;-74
2021/12/18 07:08:18;;;;;;;;;;;77.00;2227.20;;;;;;4753298;30;19910;-75
2021/12/18 07:10:44;;;;;;;;;;;77.00;2227.20;;;;;;4737341;30;19910;-74
2021/12/18 07:13:10;;;;;;;;;;;77.10;2227.20;;;;;;4753452;30;19914;-74
2021/12/18 07:15:37;;;;;;;;;;;77.40;2227.20;;;;;;4753455;30;19917;-74
2021/12/18 07:18:02;;;;;;;;;;;77.10;2227.20;;;;;;4753448;30;19968;-74
2021/12/18 07:20:28;;;;;;;;;;;77.10;2227.20;;;;;;4737615;30;19953;-74
2021/12/18 07:22:54;;;;;;;;;;;77.20;2227.20;;;;;;4753142;30;20421;-74
2021/12/18 07:25:20;;;;;;;;;;;77.20;2227.20;;;;;;4737697;30;19942;-74
2021/12/18 07:27:46;;;;;;;;;;;77.20;2227.20;;;;;;4753509;30;20371;-74
2021/12/18 07:30:12;;;;;;;;;;;77.30;2227.20;;;;;;4753546;30;20283;-74
2021/12/18 07:32:38;;;;;;;;;;;77.30;2227.20;;;;;;4737381;30;19968;-74
2021/12/18 07:35:04;;;;;;;;;;;77.40;2227.20;;;;;;4737481;30;19945;-74
2021/12/18 07:37:30;;;;;;;;;;;77.40;2227.20;;;;;;4737531;30;19910;-74
2021/12/18 07:39:56;;;;;;;;;;;77.40;2227.20;;;;;;4753207;30;20383;-74
2021/12/18 07:42:22;;;;;;;;;;;77.40;2227.20;;;;;;4752924;30;19914;-74
2021/12/18 07:44:48;;;;;;;;;;;77.40;2227.20;;;;;;4753141;30;20352;-74
2021/12/18 07:47:13;;;;;;;;;;;77.40;2227.20;;;;;;4753206;30;20390;-74
2021/12/18 07:49:39;;;;;;;;;;;77.50;2227.20;;;;;;4736989;30;19923;-74
2021/12/18 07:52:06;;;;;;;;;;;77.50;2227.20;;;;;;4737326;30;20009;-74
2021/12/18 07:54:32;;;;;;;;;;;77.50;2227.20;;;;;;4737237;30;19910;-74
2021/12/18 07:56:57;;;;;;;;;;;77.50;2227.20;;;;;;4737118;30;19917;-74
2021/12/18 07:59:24;;;;;;;;;;;77.50;2227.20;;;;;;4737140;30;19914;-74
2021/12/18 08:01:49;;;;;;;;;;;77.60;2227.20;;;;;;4753007;30;19910;-74
2021/12/18 08:04:15;;;;;;;;;;;77.60;2227.20;;;;;;4752961;30;20381;-74
2021/12/18 08:06:41;;;;;;;;;;;77.70;2227.20;;;;;;4752935;30;19960;-74
2021/12/18 08:09:06;;;;;;;;;;;77.70;2227.20;;;;;;4737079;30;19910;-74
2021/12/18 08:11:32;;;;;;;;;;;77.70;2227.20;;;;;;4752726;30;20292;-74
2021/12/18 08:13:58;;;;;;;;;;;77.70;2227.20;;;;;;4737164;30;20364;-74
2021/12/18 08:16:24;;;;;;;;;;;77.70;2227.20;;;;;;4736998;30;19910;-74
2021/12/18 08:18:49;;;;;;;;;;;102.40;2227.20;;;;;;4752905;30;19910;-74
2021/12/18 08:21:15;;;;;;;;;;;102.40;2227.20;;;;;;4752916;30;19910;-74
2021/12/18 08:23:41;;;;;;;;;;;102.50;2227.20;;;;;;4751898;30;19929;-74
2021/12/18 08:26:07;;;;;;;;;;;102.50;2227.20;;;;;;4737059;30;19910;-74
2021/12/18 08:28:33;;;;;;;;;;;102.50;2227.20;;;;;;4752815;30;19922;-74
2021/12/18 08:30:59;;;;;;;;;;;102.80;2227.20;;;;;;4736984;30;19917;-74
2021/12/18 08:33:24;;;;;;;;;;;102.70;2227.20;;;;;;4752834;30;19909;-74
2021/12/18 08:35:50;;;;;;;;;;;102.70;2227.20;;;;;;4754876;30;20004;-74
2021/12/18 08:38:16;;;;;;;;;;;102.70;2227.20;;;;;;4756066;30;20076;-74
2021/12/18 08:40:43;;;;;;;;;;;102.70;2227.20;;;;;;4740289;30;19926;-74
2021/12/18 08:43:09;;;;;;;;;;;102.80;2227.20;;;;;;4739845;30;19953;-74
2021/12/18 08:45:36;;;;;;;;;;;102.90;2227.20;;;;;;4755961;30;19914;-74
2021/12/18 08:48:01;;;;;;;;;;;102.90;2227.20;;;;;;4740106;30;19993;-74
2021/12/18 08:50:27;;;;;;;;;;;103.00;2227.20;;;;;;4739809;30;20005;-74
2021/12/18 08:52:53;;;;;;;;;;;103.00;2227.20;;;;;;4755827;30;19921;-74
2021/12/18 08:55:19;;;;;;;;;;;103.10;2227.20;;;;;;4739809;30;19917;-74
2021/12/18 08:57:45;;;;;;;;;;;103.10;2227.20;;;;;;4755826;30;19916;-74
2021/12/18 09:00:12;;;;;;;;;;;103.20;2227.20;;;;;;4755729;30;20004;-74
2021/12/18 09:02:40;;;;;;;;;;;103.20;2227.20;;;;;;4755703;30;19913;-74
2021/12/18 09:05:06;;;;;;;;;;;103.30;2227.20;;;;;;4755636;30;19944;-74
2021/12/18 09:07:32;;;;;;;;;;;128.00;2252.80;;;;;;4755646;30;19914;-74
2021/12/18 09:09:58;;;;;;;;;;;128.20;2252.80;;;;;;4739579;30;19911;-74
2021/12/18 09:12:25;;;;;;;;;;;128.20;2252.80;;;;;;4755442;30;19910;-74
2021/12/18 09:14:51;;;;;;;;;;;128.30;2252.80;;;;;;4739238;30;19921;-74
2021/12/18 09:17:16;;;;;;;;;;;128.40;2252.80;;;;;;4739429;30;19910;-74
2021/12/18 09:19:42;;;;;;;;;;;128.50;2252.80;;;;;;4739474;30;19913;-74
2021/12/18 09:22:09;;;;;;;;;;;128.60;2252.80;;;;;;4739456;30;19911;-74
2021/12/18 09:24:35;;;;;;;;;;;128.70;2252.80;;;;;;4739402;30;19926;-74
2021/12/18 09:27:00;;;;;;;;;;;128.60;2252.80;;;;;;4739457;30;19910;-74
2021/12/18 09:29:26;;;;;;;;;;;128.90;2252.80;;;;;;4755279;30;19916;-74
2021/12/18 09:31:52;;;;;;;;;;;153.90;2252.80;;;;;;4754824;30;19971;-74
2021/12/18 09:34:18;;;;;;;;;;;153.70;2252.80;;;;;;4755113;30;19987;-74
2021/12/18 09:36:43;;;;;;;;;;;153.80;2252.80;;;;;;4755019;30;19917;-74
2021/12/18 09:39:09;;;;;;;;;;;153.90;2252.80;;;;;;4755114;30;19910;-74
2021/12/18 09:41:35;;;;;;;;;;;153.90;2252.80;;;;;;4739330;30;20008;-74
2021/12/18 09:44:01;;;;;;;;;;;153.80;2252.80;;;;;;4754846;30;20423;-74
2021/12/18 09:46:30;;;;;;;;;;;154.20;2252.80;;;;;;4754571;30;19938;-74
2021/12/18 09:48:55;;;;;;;;;;;154.30;2252.80;;;;;;4753848;30;20047;-74
2021/12/18 09:51:24;;;;;;;;;;;154.50;2252.80;;;;;;4739013;30;19951;-74
2021/12/18 09:53:51;;;;;;;;;;;179.90;2252.80;;;;;;4754859;30;19967;-74
2021/12/18 09:56:17;;;;;;;;;;;256.10;2099.20;;;;;;4754711;30;19910;-76
2021/12/18 09:58:43;;;;;;;;;;;308.00;1715.20;;;;;;4739003;30;19914;-78
2021/12/18 10:01:08;;;;;;;;;;;333.30;1740.80;;;;;;4738663;30;19917;-76
2021/12/18 10:03:49;;;;;;;;;;;359.10;1510.40;;;;;;4738596;30;20303;-77
2021/12/18 10:06:28;;;;;;;;;;;461.20;1254.40;;;;;;4738671;30;19910;-75
2021/12/18 10:08:54;;;;;;;;;;;512.50;1075.20;;;;;;4754768;30;19910;-75
2021/12/18 10:11:20;;;;;;;;;;;538.10;998.40;;;;;;4754416;30;19967;-75
2021/12/18 10:13:50;;;;;;;;;;;486.60;1075.20;;;;;;4754627;30;20387;-75
2021/12/18 10:16:16;;;;;;;;;;;486.60;1100.80;;;;;;4754501;30;19967;-75
2021/12/18 10:18:41;;;;;;;;;;;461.20;1126.40;;;;;;4754608;30;20381;-75
2021/12/18 10:21:12;;;;;;;;;;;486.70;1049.60;;;;;;4771138;30;19910;-90
2021/12/18 10:23:39;;;;;;;;;;;460.90;1126.40;;;;;;4772066;30;19928;-75
2021/12/18 10:26:05;;;;;;;;;;;410.40;1177.60;;;;;;4756084;30;19910;-75
2021/12/18 10:28:44;;;;;;;;;;;435.40;1177.60;;;;;;4772151;30;19917;-75
2021/12/18 10:31:10;;;;;;;;;;;435.70;1177.60;;;;;;4771808;30;20004;-75
2021/12/18 10:33:36;;;;;;;;;;;436.00;1177.60;;;;;;4772004;30;19993;-75
2021/12/18 10:36:02;;;;;;;;;;;486.70;1100.80;;;;;;4770803;30;19909;-75
2021/12/18 10:38:34;;;;;;;;;;;512.00;1049.60;;;;;;4772109;30;19910;-76
2021/12/18 10:41:00;;;;;;;;;;;435.50;1152.00;;;;;;4771990;30;19910;-75
2021/12/18 10:43:26;;;;;;;;;;;384.90;1228.80;;;;;;4763611;30;20275;-75
2021/12/18 10:45:51;;;;;;;;;;;384.50;1536.00;;;;;;4745903;30;20375;-76
2021/12/18 10:48:18;;;;;;;;;;;333.10;1331.20;;;;;;4762151;30;19920;-78
2021/12/18 10:50:51;;;;;;;;;;;384.20;1254.40;;;;;;4763398;30;19926;-92
2021/12/18 10:53:24;;;;;;;;;;;384.60;1254.40;;;;;;4747309;30;20015;-79
2021/12/18 10:55:52;;;;;;;;;;;409.90;1254.40;;;;;;4753808;30;20368;-88
2021/12/18 10:58:19;;;;;;;;;;;358.60;1408.00;;;;;;4753399;30;19993;-83
2021/12/18 11:00:46;;;;;;;;;;;307.80;1536.00;;;;;;4744586;30;20599;-84
2021/12/18 11:03:21;;;;;;;;;;;281.80;1587.20;;;;;;4747815;30;19921;-88
2021/12/18 11:06:05;;;;;;;;;;;256.70;1587.20;;;;;;4750173;30;19920;-88
2021/12/18 11:08:31;;;;;;;;;;;256.60;1587.20;;;;;;4760116;30;19913;-87
2021/12/18 11:14:09;;;;;;;;;;;307.90;1433.60;;;;;;4737457;30;19953;-83
2021/12/18 11:16:36;;;;;;;;;;;307.60;1408.00;;;;;;4745418;30;19910;-87
2021/12/18 11:19:13;;;;;;;;;;;282.00;1510.40;;;;;;4749898;30;19918;-85
2021/12/18 11:21:50;;;;;;;;;;;256.60;1510.40;;;;;;4745870;30;19910;-83
2021/12/18 11:24:16;;;;;;;;;;;256.60;1561.60;;;;;;4746301;30;19918;-89
2021/12/18 11:27:03;;;;;;;;;;;231.20;1638.40;;;;;;4751879;30;19941;-85
2021/12/18 11:29:33;;;;;;;;;;;231.20;1664.00;;;;;;4748067;30;19910;-87
2021/12/18 11:32:00;;;;;;;;;;;256.00;1638.40;;;;;;4748200;30;19909;-86
2021/12/18 11:34:26;;;;;;;;;;;231.20;1561.60;;;;;;4745526;30;19967;-86
2021/12/18 11:36:52;;;;;;;;;;;231.00;1587.20;;;;;;4744811;30;19992;-85
2021/12/18 11:39:19;;;;;;;;;;;231.10;1638.40;;;;;;4748953;30;19917;-86
2021/12/18 11:41:50;;;;;;;;;;;231.30;1638.40;;;;;;4747803;30;19917;-86
2021/12/18 11:44:23;;;;;;;;;;;231.20;1664.00;;;;;;4763466;30;19925;-85
2021/12/18 11:46:48;;;;;;;;;;;231.10;1638.40;;;;;;4748000;30;20433;-86
2021/12/18 11:49:14;;;;;;;;;;;230.80;1664.00;;;;;;4755408;30;19918;-85
2021/12/18 11:51:41;;;;;;;;;;;230.60;1715.20;;;;;;4755684;30;19922;-87
2021/12/18 11:54:36;;;;;;;;;;;205.70;1740.80;;;;;;4744572;30;20394;-86
2021/12/18 11:57:02;;;;;;;;;;;205.50;1766.40;;;;;;4759574;30;20008;-86
2021/12/18 11:59:41;;;;;;;;;;;205.60;1792.00;;;;;;4742147;30;20012;-87
2021/12/18 12:02:08;;;;;;;;;;;205.50;1817.60;;;;;;4745850;30;19913;-90
2021/12/18 12:04:52;;;;;;;;;;;205.50;1843.20;;;;;;4744989;30;19922;-87
2021/12/18 12:07:22;;;;;;;;;;;205.70;1817.60;;;;;;4738023;30;20360;-90
2021/12/18 12:10:06;;;;;;;;;;;205.70;1766.40;;;;;;4739795;30;19917;-90
2021/12/18 12:13:07;;;;;;;;;;;230.40;1766.40;;;;;;4753553;30;20021;-94
2021/12/18 12:15:32;;;;;;;;;;;230.50;1740.80;;;;;;4737110;30;19965;-93
2021/12/18 12:17:59;;;;;;;;;;;230.70;1715.20;;;;;;4723497;30;19946;-94
2021/12/18 12:20:32;;;;;;;;;;;231.00;1689.60;;;;;;4724269;30;19910;-94
2021/12/18 12:23:00;;;;;;;;;;;231.30;1664.00;;;;;;4723580;30;19914;-87
2021/12/18 12:25:39;;;;;;;;;;;307.20;1510.40;;;;;;4725895;30;19919;-93
2021/12/18 12:28:25;;;;;;;;;;;307.20;1484.80;;;;;;4725757;30;20447;-89
2021/12/18 12:31:13;;;;;;;;;;;282.00;1484.80;;;;;;4730997;30;19914;-90
2021/12/18 12:33:39;;;;;;;;;;;333.70;1356.80;;;;;;4750563;30;20003;-92
2021/12/18 12:36:22;;;;;;;;;;;384.20;1254.40;;;;;;4739855;30;20368;-95
2021/12/18 12:38:57;;;;;;;;;;;333.40;1331.20;;;;;;4740561;30;19922;-95
2021/12/18 12:41:55;;;;;;;;;;;282.30;1433.60;;;;;;4763086;30;20394;-86
2021/12/18 12:45:16;;;;;;;;;;;256.50;1536.00;;;;;;4736315;30;19918;-90
2021/12/18 12:47:54;;;;;;;;;;;230.90;1664.00;;;;;;4721015;30;19986;-91
2021/12/18 12:50:20;;;;;;;;;;;231.20;1740.80;;;;;;4695076;30;19969;-86
2021/12/18 12:53:08;;;;;;;;;;;307.70;1561.60;;;;;;4710263;30;19919;-81
2021/12/18 12:55:41;;;;;;;;;;;384.90;1228.80;;;;;;4692511;30;19911;-94
2021/12/18 12:58:15;;;;;;;;;;;410.30;1203.20;;;;;;4705776;30;19911;-88
2021/12/18 13:00:42;;;;;;;;;;;512.30;947.20;;;;;;4688312;30;19918;-95
2021/12/18 13:03:16;;;;;;;;;;;563.20;921.60;;;;;;4687450;30;19969;-96
2021/12/18 13:05:50;;;;;;;;;;;538.30;921.60;;;;;;4701319;30;19919;-93
2021/12/18 13:08:17;;;;;;;;;;;563.60;921.60;;;;;;4686614;30;19923;-84
2021/12/18 13:10:43;;;;;;;;;;;563.50;896.00;;;;;;4686417;30;19918;-81
2021/12/18 13:13:12;;;;;;;;;;;563.90;870.40;;;;;;4686715;30;19954;-82
2021/12/18 13:15:53;;;;;;;;;;;512.90;896.00;;;;;;4686733;30;19918;-90
2021/12/18 13:18:29;;;;;;;;;;;538.10;896.00;;;;;;4704313;30;19910;-83
2021/12/18 13:21:15;;;;;;;;;;;563.40;896.00;;;;;;4750544;30;20426;-83
2021/12/18 13:23:44;;;;;;;;;;;564.10;819.20;;;;;;4757449;30;19932;-82
2021/12/18 13:26:12;;;;;;;;;;;614.40;793.60;;;;;;4757623;30;20008;-81
2021/12/18 13:28:52;;;;;;;;;;;614.40;768.00;;;;;;4764274;30;20350;-82
2021/12/18 13:31:18;;;;;;;;;;;615.00;768.00;;;;;;4747805;30;19910;-82
2021/12/18 13:34:04;;;;;;;;;;;614.80;768.00;;;;;;4747630;30;19909;-96
2021/12/18 13:36:37;;;;;;;;;;;563.50;844.80;;;;;;4740006;30;19997;-96
2021/12/18 13:39:07;;;;;;;;;;;563.90;819.20;;;;;;4739883;30;19914;-81
2021/12/18 13:41:33;;;;;;;;;;;588.90;793.60;;;;;;4725175;30;19968;-82
2021/12/18 13:43:58;;;;;;;;;;;563.80;844.80;;;;;;4755392;30;19918;-83
2021/12/18 13:46:28;;;;;;;;;;;588.80;844.80;;;;;;4740628;30;19910;-78
2021/12/18 13:48:54;;;;;;;;;;;538.50;870.40;;;;;;4755616;30;19921;-93
2021/12/18 13:51:20;;;;;;;;;;;537.70;896.00;;;;;;4744118;30;20008;-82
2021/12/18 13:53:53;;;;;;;;;;;537.90;896.00;;;;;;4746602;30;19921;-81
2021/12/18 13:56:20;;;;;;;;;;;537.60;921.60;;;;;;4749860;30;19914;-82
2021/12/18 13:58:48;;;;;;;;;;;537.70;921.60;;;;;;4770569;30;19917;-96
2021/12/18 14:01:18;;;;;;;;;;;538.10;870.40;;;;;;4757468;30;19916;-91
2021/12/18 14:03:48;;;;;;;;;;;538.10;844.80;;;;;;4757315;30;19945;-82
2021/12/18 14:06:27;;;;;;;;;;;486.90;947.20;;;;;;4755745;30;19921;-82
2021/12/18 14:08:57;;;;;;;;;;;410.50;1152.00;;;;;;4753299;30;19914;-82
2021/12/18 14:11:27;;;;;;;;;;;435.70;1100.80;;;;;;4757086;30;19967;-82
2021/12/18 14:13:58;;;;;;;;;;;461.50;1075.20;;;;;;4771389;30;19914;-82
2021/12/18 14:16:23;;;;;;;;;;;486.60;1049.60;;;;;;4771877;30;19932;-81
2021/12/18 14:18:59;;;;;;;;;;;410.30;1152.00;;;;;;4771091;30;20407;-82
2021/12/18 14:21:33;;;;;;;;;;;384.70;1254.40;;;;;;4755855;30;20383;-82
2021/12/18 14:24:00;;;;;;;;;;;409.80;1228.80;;;;;;4772015;30;19961;-82
2021/12/18 14:26:27;;;;;;;;;;;384.50;1280.00;;;;;;4756357;30;19917;-82
2021/12/18 14:28:55;;;;;;;;;;;333.60;1382.40;;;;;;4772107;30;20000;-82
2021/12/18 14:31:23;;;;;;;;;;;307.80;1510.40;;;;;;4772096;30;20363;-83
2021/12/18 14:33:52;;;;;;;;;;;282.20;1587.20;;;;;;4756263;30;19909;-84
2021/12/18 14:36:37;;;;;;;;;;;256.70;1664.00;;;;;;4756251;30;19960;-84
2021/12/18 14:39:05;;;;;;;;;;;256.30;1689.60;;;;;;4756353;30;19936;-84
2021/12/18 14:41:32;;;;;;;;;;;231.30;1817.60;;;;;;4772243;30;20443;-84
2021/12/18 14:43:59;;;;;;;;;;;231.00;1792.00;;;;;;4756163;30;20364;-84
2021/12/18 14:46:25;;;;;;;;;;;230.80;1843.20;;;;;;4774685;30;20303;-84
2021/12/18 14:48:51;;;;;;;;;;;230.60;1868.80;;;;;;4756106;30;19914;-84
2021/12/18 14:51:28;;;;;;;;;;;230.40;1945.60;;;;;;4772448;30;19924;-85
2021/12/18 14:53:58;;;;;;;;;;;205.50;1945.60;;;;;;4754766;30;20283;-84
2021/12/18 14:56:24;;;;;;;;;;;205.40;1996.80;;;;;;4772051;30;20306;-84